createdAt,value
2019-04-20T00:00:39.956Z,3.90
2019-04-20T00:01:19.967Z,3.90
2019-04-20T00:01:48.528Z,3.80
2019-04-20T00:02:29.665Z,3.80
2019-04-20T00:03:03.564Z,3.80
2019-04-20T00:03:41.710Z,3.80
2019-04-20T00:04:19.413Z,3.80
2019-04-20T00:04:47.315Z,3.80
2019-04-20T00:05:21.201Z,3.80
2019-04-20T00:05:55.213Z,3.80
2019-04-20T00:06:31.730Z,3.80
2019-04-20T00:07:04.064Z,3.80
2019-04-20T00:07:37.680Z,3.70
2019-04-20T00:08:16.716Z,3.70
2019-04-20T00:08:47.482Z,3.70
2019-04-20T00:09:25.759Z,3.70
2019-04-20T00:10:04.512Z,3.70
2019-04-20T00:10:44.758Z,3.70
2019-04-20T00:11:15.634Z,3.70
2019-04-20T00:11:53.463Z,3.70
2019-04-20T00:12:25.252Z,3.70
2019-04-20T00:13:05.913Z,3.70
2019-04-20T00:13:38.417Z,3.70
2019-04-20T00:14:09.058Z,3.70
2019-04-20T00:14:38.801Z,3.60
2019-04-20T00:15:13.116Z,3.60
2019-04-20T00:15:47.237Z,3.60
2019-04-20T00:16:21.078Z,3.60
2019-04-20T00:16:54.836Z,3.60
2019-04-20T00:17:28.762Z,3.60
2019-04-20T00:18:06.286Z,3.60
2019-04-20T00:18:43.840Z,3.60
2019-04-20T00:19:15.343Z,3.60
2019-04-20T00:19:51.084Z,3.50
2019-04-20T00:20:29.008Z,3.60
2019-04-20T00:21:03.860Z,3.50
2019-04-20T00:21:52.663Z,3.50
2019-04-20T00:22:24.579Z,3.50
2019-04-20T00:22:59.764Z,3.50
2019-04-20T00:23:40.073Z,3.50
2019-04-20T00:24:33.885Z,3.50
2019-04-20T00:25:20.395Z,3.50
2019-04-20T00:26:17.327Z,3.50
2019-04-20T00:27:11.725Z,3.50
2019-04-20T00:27:43.305Z,3.40
2019-04-20T00:28:24.146Z,3.40
2019-04-20T00:29:00.195Z,3.40
2019-04-20T00:29:35.483Z,3.40
2019-04-20T00:30:06.741Z,3.40
2019-04-20T00:30:48.112Z,3.40
2019-04-20T00:31:19.031Z,3.40
2019-04-20T00:31:48.950Z,3.40
2019-04-20T00:32:23.217Z,3.40
2019-04-20T00:32:58.520Z,3.30
2019-04-20T00:33:37.334Z,3.30
2019-04-20T00:34:07.992Z,3.30
2019-04-20T00:34:38.480Z,3.30
2019-04-20T00:35:08.589Z,3.30
2019-04-20T00:35:42.158Z,3.30
2019-04-20T00:36:16.099Z,3.30
2019-04-20T00:36:49.872Z,3.30
2019-04-20T00:37:23.410Z,3.30
2019-04-20T00:37:57.117Z,3.30
2019-04-20T00:38:37.635Z,3.20
2019-04-20T00:39:10.870Z,3.20
2019-04-20T00:39:42.707Z,3.20
2019-04-20T00:40:17.117Z,3.20
2019-04-20T00:40:58.480Z,3.20
2019-04-20T00:41:25.891Z,3.20
2019-04-20T00:42:05.656Z,3.20
2019-04-20T00:42:42.222Z,3.20
2019-04-20T00:43:13.286Z,3.20
2019-04-20T00:43:45.599Z,3.20
2019-04-20T00:44:27.315Z,3.20
2019-04-20T00:45:03.350Z,3.10
2019-04-20T00:45:33.211Z,3.10
2019-04-20T00:46:09.172Z,3.10
2019-04-20T00:46:51.288Z,3.10
2019-04-20T00:47:30.997Z,3.10
2019-04-20T00:47:59.522Z,3.10
2019-04-20T00:48:40.444Z,3.10
2019-04-20T00:49:15.214Z,3.10
2019-04-20T00:49:50.943Z,3.10
2019-04-20T00:50:28.452Z,3.00
2019-04-20T00:50:59.314Z,3.00
2019-04-20T00:51:35.390Z,3.10
2019-04-20T00:52:23.774Z,3.00
2019-04-20T00:52:47.120Z,3.00
2019-04-20T00:53:19.427Z,3.00
2019-04-20T00:53:47.962Z,3.00
2019-04-20T00:54:16.303Z,3.00
2019-04-20T00:54:49.721Z,3.00
2019-04-20T00:55:23.240Z,3.00
2019-04-20T00:55:57.123Z,3.00
2019-04-20T00:56:31.006Z,2.90
2019-04-20T00:57:13.267Z,2.90
2019-04-20T00:57:47.698Z,2.90
2019-04-20T00:58:20.104Z,2.90
2019-04-20T00:59:03.057Z,2.90
2019-04-20T00:59:36.960Z,2.90
2019-04-20T01:00:17.582Z,2.90
2019-04-20T01:01:00.429Z,2.90
2019-04-20T01:01:33.038Z,2.90
2019-04-20T01:02:04.032Z,2.90
2019-04-20T01:02:33.295Z,2.80
2019-04-20T01:03:09.586Z,2.80
2019-04-20T01:03:43.236Z,2.80
2019-04-20T01:04:23.833Z,2.80
2019-04-20T01:04:58.572Z,2.80
2019-04-20T01:05:35.379Z,2.80
2019-04-20T01:06:20.644Z,2.80
2019-04-20T01:06:53.550Z,2.80
2019-04-20T01:07:31.165Z,2.80
2019-04-20T01:08:12.986Z,2.80
2019-04-20T01:08:48.486Z,2.80
2019-04-20T01:09:24.628Z,2.70
2019-04-20T01:10:13.190Z,2.80
2019-04-20T01:10:52.346Z,2.70
2019-04-20T01:11:30.102Z,2.70
2019-04-20T01:11:58.577Z,2.70
2019-04-20T01:12:35.005Z,2.70
2019-04-20T01:13:13.987Z,2.70
2019-04-20T01:13:50.481Z,2.70
2019-04-20T01:14:26.099Z,2.60
2019-04-20T01:14:58.528Z,2.60
2019-04-20T01:15:38.741Z,2.60
2019-04-20T01:16:09.409Z,2.60
2019-04-20T01:16:45.202Z,2.60
2019-04-20T01:17:13.443Z,2.60
2019-04-20T01:17:46.966Z,2.60
2019-04-20T01:18:20.402Z,2.60
2019-04-20T01:18:53.799Z,2.60
2019-04-20T01:19:27.220Z,2.60
2019-04-20T01:20:00.628Z,2.60
2019-04-20T01:20:34.065Z,2.60
2019-04-20T01:21:14.081Z,2.60
2019-04-20T01:21:49.826Z,2.50
2019-04-20T01:22:21.882Z,2.50
2019-04-20T01:23:00.196Z,2.50
2019-04-20T01:23:35.543Z,2.50
2019-04-20T01:24:06.293Z,2.50
2019-04-20T01:24:43.281Z,2.50
2019-04-20T01:25:18.132Z,2.50
2019-04-20T01:25:56.813Z,2.50
2019-04-20T01:26:24.889Z,2.50
2019-04-20T01:27:01.895Z,2.50
2019-04-20T01:27:50.162Z,2.50
2019-04-20T01:28:27.814Z,2.50
2019-04-20T01:28:54.185Z,2.40
2019-04-20T01:29:29.103Z,2.40
2019-04-20T01:30:05.889Z,2.40
2019-04-20T01:30:36.181Z,2.40
2019-04-20T01:31:15.694Z,2.40
2019-04-20T01:31:55.721Z,2.40
2019-04-20T01:32:23.364Z,2.40
2019-04-20T01:33:06.218Z,2.40
2019-04-20T01:33:37.302Z,2.40
2019-04-20T01:34:08.282Z,2.40
2019-04-20T01:34:47.461Z,2.40
2019-04-20T01:35:27.215Z,2.40
2019-04-20T01:36:00.152Z,2.40
2019-04-20T01:36:36.951Z,2.40
2019-04-20T01:37:09.286Z,2.30
2019-04-20T01:37:39.487Z,2.30
2019-04-20T01:38:22.465Z,2.30
2019-04-20T01:38:52.266Z,2.30
2019-04-20T01:39:23.978Z,2.30
2019-04-20T01:39:54.166Z,2.30
2019-04-20T01:40:25.426Z,2.30
2019-04-20T01:40:59.162Z,2.30
2019-04-20T01:41:32.981Z,2.20
2019-04-20T01:42:06.747Z,2.30
2019-04-20T01:42:40.377Z,2.30
2019-04-20T01:43:14.264Z,2.30
2019-04-20T01:43:48.105Z,2.20
2019-04-20T01:44:26.152Z,2.20
2019-04-20T01:44:57.374Z,2.20
2019-04-20T01:45:36.064Z,2.20
2019-04-20T01:46:13.324Z,2.20
2019-04-20T01:46:46.603Z,2.20
2019-04-20T01:47:17.160Z,2.20
2019-04-20T01:47:54.114Z,2.20
2019-04-20T01:48:30.517Z,2.20
2019-04-20T01:49:07.937Z,2.20
2019-04-20T01:49:37.433Z,2.20
2019-04-20T01:50:18.651Z,2.20
2019-04-20T01:50:55.013Z,2.10
2019-04-20T01:51:27.216Z,2.10
2019-04-20T01:52:09.697Z,2.10
2019-04-20T01:52:46.843Z,2.10
2019-04-20T01:53:18.983Z,2.10
2019-04-20T01:54:08.272Z,2.10
2019-04-20T01:54:38.719Z,2.10
2019-04-20T01:55:23.008Z,2.10
2019-04-20T01:55:58.647Z,2.00
2019-04-20T01:56:33.907Z,2.10
2019-04-20T01:57:01.714Z,2.00
2019-04-20T01:57:52.896Z,2.10
2019-04-20T01:58:55.300Z,2.10
2019-04-20T01:59:20.061Z,2.00
2019-04-20T01:59:52.271Z,2.00
2019-04-20T02:00:38.292Z,2.00
2019-04-20T02:01:17.795Z,2.00
2019-04-20T02:01:55.754Z,2.00
2019-04-20T02:02:28.208Z,2.00
2019-04-20T02:03:24.030Z,2.00
2019-04-20T02:03:58.529Z,2.00
2019-04-20T02:04:38.625Z,2.00
2019-04-20T02:05:17.057Z,2.00
2019-04-20T02:05:53.075Z,2.00
2019-04-20T02:06:23.875Z,1.90
2019-04-20T02:06:59.679Z,1.90
2019-04-20T02:07:39.800Z,1.90
2019-04-20T02:08:13.870Z,1.90
2019-04-20T02:08:42.169Z,1.90
2019-04-20T02:09:20.710Z,1.90
2019-04-20T02:09:56.850Z,1.90
2019-04-20T02:10:33.274Z,1.90
2019-04-20T02:11:04.347Z,1.90
2019-04-20T02:11:41.003Z,1.90
2019-04-20T02:12:18.230Z,1.80
2019-04-20T02:12:50.342Z,1.90
2019-04-20T02:13:21.557Z,1.80
2019-04-20T02:13:58.809Z,1.80
2019-04-20T02:14:38.801Z,1.80
2019-04-20T02:15:13.062Z,1.80
2019-04-20T02:15:47.990Z,1.80
2019-04-20T02:16:26.462Z,1.80
2019-04-20T02:17:02.993Z,1.80
2019-04-20T02:17:35.242Z,1.80
2019-04-20T02:18:15.008Z,1.80
2019-04-20T02:18:56.760Z,1.80
2019-04-20T02:19:28.992Z,1.70
2019-04-20T02:20:04.512Z,1.70
2019-04-20T02:20:40.159Z,1.80
2019-04-20T02:21:16.577Z,1.80
2019-04-20T02:21:47.705Z,1.70
2019-04-20T02:22:23.097Z,1.70
2019-04-20T02:22:56.927Z,1.70
2019-04-20T02:23:28.192Z,1.70
2019-04-20T02:23:57.767Z,1.70
2019-04-20T02:24:27.945Z,1.70
2019-04-20T02:25:01.756Z,1.70
2019-04-20T02:25:35.705Z,1.70
2019-04-20T02:26:09.336Z,1.70
2019-04-20T02:26:43.061Z,1.70
2019-04-20T02:27:20.602Z,1.70
2019-04-20T02:27:56.941Z,1.70
2019-04-20T02:28:56.863Z,1.70
2019-04-20T02:29:24.618Z,1.60
2019-04-20T02:29:58.219Z,1.60
2019-04-20T02:30:53.926Z,1.60
2019-04-20T02:31:25.152Z,1.60
2019-04-20T02:32:05.022Z,1.60
2019-04-20T02:33:16.755Z,1.60
2019-04-20T02:33:54.314Z,1.60
2019-04-20T02:34:39.905Z,1.60
2019-04-20T02:35:16.815Z,1.60
2019-04-20T02:36:01.521Z,1.60
2019-04-20T02:36:47.954Z,1.60
2019-04-20T02:39:05.885Z,1.60
2019-04-20T02:39:28.716Z,1.50
2019-04-20T02:40:38.985Z,1.50
2019-04-20T02:41:47.617Z,1.50
2019-04-20T02:42:17.865Z,1.50
2019-04-20T02:43:02.002Z,1.50
2019-04-20T02:43:41.938Z,1.50
2019-04-20T02:44:41.952Z,1.50
2019-04-20T02:45:20.451Z,1.50
2019-04-20T02:45:47.181Z,1.50
2019-04-20T02:46:28.502Z,1.50
2019-04-20T02:47:07.561Z,1.40
2019-04-20T02:47:40.336Z,1.50
2019-04-20T02:48:45.245Z,1.40
2019-04-20T02:49:35.954Z,1.40
2019-04-20T02:50:09.119Z,1.40
2019-04-20T02:50:30.158Z,1.40
2019-04-20T02:51:01.094Z,1.40
2019-04-20T02:51:40.947Z,1.40
2019-04-20T02:52:13.470Z,1.40
2019-04-20T02:53:43.325Z,1.40
2019-04-20T02:54:15.195Z,1.30
2019-04-20T02:54:28.495Z,1.40
2019-04-20T02:55:09.406Z,1.40
2019-04-20T02:55:53.537Z,1.40
2019-04-20T02:56:22.775Z,1.40
2019-04-20T02:56:57.440Z,1.30
2019-04-20T02:57:33.084Z,1.30
2019-04-20T02:58:05.140Z,1.30
2019-04-20T02:58:41.924Z,1.30
2019-04-20T02:59:44.638Z,1.30
2019-04-20T02:59:56.271Z,1.30
2019-04-20T03:00:25.456Z,1.30
2019-04-20T03:00:55.121Z,1.30
2019-04-20T03:01:29.455Z,1.30
2019-04-20T03:01:59.107Z,1.30
2019-04-20T03:02:31.282Z,1.30
2019-04-20T03:03:07.082Z,1.30
2019-04-20T03:03:35.959Z,1.30
2019-04-20T03:04:04.897Z,1.30
2019-04-20T03:04:45.239Z,1.30
2019-04-20T03:05:23.693Z,1.30
2019-04-20T03:06:06.161Z,1.20
2019-04-20T03:06:32.892Z,1.20
2019-04-20T03:07:12.793Z,1.20
2019-04-20T03:07:54.446Z,1.20
2019-04-20T03:08:22.342Z,1.20
2019-04-20T03:09:04.801Z,1.20
2019-04-20T03:09:36.756Z,1.20
2019-04-20T03:10:12.455Z,1.20
2019-04-20T03:10:52.475Z,1.20
2019-04-20T03:11:29.407Z,1.20
2019-04-20T03:13:01.346Z,1.20
2019-04-20T03:13:08.012Z,1.20
2019-04-20T03:13:41.950Z,1.20
2019-04-20T03:14:14.901Z,1.20
2019-04-20T03:14:47.790Z,1.20
2019-04-20T03:15:33.855Z,1.10
2019-04-20T03:16:08.786Z,1.10
2019-04-20T03:16:35.694Z,1.10
2019-04-20T03:17:17.729Z,1.10
2019-04-20T03:17:50.800Z,1.10
2019-04-20T03:18:27.751Z,1.10
2019-04-20T03:18:54.640Z,1.10
2019-04-20T03:19:29.973Z,1.10
2019-04-20T03:20:03.328Z,1.10
2019-04-20T03:20:47.808Z,1.10
2019-04-20T03:21:24.764Z,1.10
2019-04-20T03:21:58.301Z,1.10
2019-04-20T03:22:39.553Z,1.10
2019-04-20T03:23:26.124Z,1.10
2019-04-20T03:23:48.067Z,1.10
2019-04-20T03:24:20.513Z,1.00
2019-04-20T03:24:54.457Z,1.00
2019-04-20T03:25:53.465Z,1.00
2019-04-20T03:26:21.165Z,1.00
2019-04-20T03:26:56.625Z,1.00
2019-04-20T03:27:30.601Z,1.00
2019-04-20T03:28:10.814Z,1.00
2019-04-20T03:28:42.901Z,1.00
2019-04-20T03:29:24.545Z,1.00
2019-04-20T03:30:22.856Z,1.00
2019-04-20T03:31:41.637Z,0.90
2019-04-20T03:32:25.254Z,0.90
2019-04-20T03:33:09.591Z,0.90
2019-04-20T03:34:13.282Z,0.90
2019-04-20T03:35:05.175Z,0.90
2019-04-20T03:35:35.447Z,0.90
2019-04-20T03:36:19.868Z,0.90
2019-04-20T03:36:55.061Z,0.90
2019-04-20T03:37:28.014Z,0.90
2019-04-20T03:38:01.326Z,0.90
2019-04-20T03:38:29.907Z,0.90
2019-04-20T03:39:05.451Z,0.90
2019-04-20T03:39:36.158Z,0.90
2019-04-20T03:40:11.250Z,0.80
2019-04-20T03:40:45.384Z,0.90
2019-04-20T03:41:16.205Z,0.80
2019-04-20T03:41:46.338Z,0.90
2019-04-20T03:42:15.918Z,0.90
2019-04-20T03:42:50.624Z,0.80
2019-04-20T03:43:24.907Z,0.90
2019-04-20T03:44:03.168Z,0.80
2019-04-20T03:44:35.847Z,0.80
2019-04-20T03:45:13.174Z,0.80
2019-04-20T03:45:51.831Z,0.80
2019-04-20T03:46:25.772Z,0.80
2019-04-20T03:46:59.669Z,0.80
2019-04-20T03:47:40.353Z,0.80
2019-04-20T03:48:16.124Z,0.80
2019-04-20T03:48:54.853Z,0.80
2019-04-20T03:49:40.896Z,0.80
2019-04-20T03:50:10.521Z,0.80
2019-04-20T03:50:46.790Z,0.80
2019-04-20T03:51:26.899Z,0.80
2019-04-20T03:51:58.777Z,0.80
2019-04-20T03:52:36.549Z,0.80
2019-04-20T03:53:19.570Z,0.80
2019-04-20T03:54:11.659Z,0.80
2019-04-20T03:54:55.355Z,0.80
2019-04-20T03:55:50.165Z,0.80
2019-04-20T03:56:34.409Z,0.80
2019-04-20T03:57:17.010Z,0.80
2019-04-20T03:57:51.467Z,0.80
2019-04-20T03:58:24.264Z,0.80
2019-04-20T03:59:04.668Z,0.80
2019-04-20T03:59:51.130Z,0.80
2019-04-20T04:00:39.678Z,0.80
2019-04-20T04:01:19.838Z,0.80
2019-04-20T04:02:17.367Z,0.80
2019-04-20T04:02:52.788Z,0.80
2019-04-20T04:03:37.953Z,0.80
2019-04-20T04:04:05.359Z,0.80
2019-04-20T04:04:54.797Z,0.80
2019-04-20T04:05:31.054Z,0.80
2019-04-20T04:06:15.906Z,0.80
2019-04-20T04:06:47.062Z,0.80
2019-04-20T04:07:26.873Z,0.80
2019-04-20T04:08:02.980Z,0.80
2019-04-20T04:08:34.469Z,0.80
2019-04-20T04:09:13.622Z,0.90
2019-04-20T04:09:53.767Z,0.80
2019-04-20T04:10:27.314Z,0.90
2019-04-20T04:11:04.801Z,0.80
2019-04-20T04:11:38.115Z,0.90
2019-04-20T04:12:25.378Z,0.90
2019-04-20T04:13:11.775Z,0.90
2019-04-20T04:13:45.979Z,0.90
2019-04-20T04:14:19.857Z,0.90
2019-04-20T04:14:53.681Z,0.90
2019-04-20T04:15:27.551Z,0.90
2019-04-20T04:16:04.901Z,0.90
2019-04-20T04:16:42.924Z,0.90
2019-04-20T04:17:15.251Z,0.90
2019-04-20T04:17:47.981Z,0.90
2019-04-20T04:18:29.140Z,0.90
2019-04-20T04:19:07.542Z,1.00
2019-04-20T04:19:35.162Z,1.00
2019-04-20T04:20:12.769Z,1.00
2019-04-20T04:20:47.613Z,1.00
2019-04-20T04:21:27.080Z,1.00
2019-04-20T04:22:03.964Z,1.00
2019-04-20T04:22:43.769Z,1.00
2019-04-20T04:23:19.078Z,1.00
2019-04-20T04:23:56.071Z,1.00
2019-04-20T04:24:23.536Z,1.10
2019-04-20T04:25:03.714Z,1.10
2019-04-20T04:25:32.521Z,1.10
2019-04-20T04:26:15.055Z,1.10
2019-04-20T04:26:47.422Z,1.10
2019-04-20T04:27:28.540Z,1.10
2019-04-20T04:28:03.857Z,1.10
2019-04-20T04:28:35.255Z,1.10
2019-04-20T04:29:13.568Z,1.10
2019-04-20T04:29:47.066Z,1.20
2019-04-20T04:30:19.205Z,1.20
2019-04-20T04:31:00.033Z,1.20
2019-04-20T04:31:33.174Z,1.20
2019-04-20T04:32:15.780Z,1.20
2019-04-20T04:33:10.534Z,1.20
2019-04-20T04:33:44.501Z,1.30
2019-04-20T04:34:12.497Z,1.30
2019-04-20T04:34:28.783Z,1.30
2019-04-20T04:35:01.664Z,1.30
2019-04-20T04:35:30.204Z,1.30
2019-04-20T04:36:10.434Z,1.30
2019-04-20T04:36:50.740Z,1.30
2019-04-20T04:37:26.677Z,1.30
2019-04-20T04:37:58.840Z,1.40
2019-04-20T04:38:37.425Z,1.40
2019-04-20T04:39:26.314Z,1.40
2019-04-20T04:39:46.953Z,1.40
2019-04-20T04:40:25.326Z,1.40
2019-04-20T04:41:01.880Z,1.50
2019-04-20T04:41:27.049Z,1.50
2019-04-20T04:42:10.224Z,1.50
2019-04-20T04:42:42.668Z,1.50
2019-04-20T04:43:16.056Z,1.50
2019-04-20T04:43:51.080Z,1.50
2019-04-20T04:44:20.207Z,1.50
2019-04-20T04:44:50.611Z,1.60
2019-04-20T04:45:18.895Z,1.60
2019-04-20T04:45:51.405Z,1.60
2019-04-20T04:46:25.114Z,1.60
2019-04-20T04:47:02.789Z,1.70
2019-04-20T04:47:34.594Z,1.60
2019-04-20T04:48:14.734Z,1.70
2019-04-20T04:48:46.591Z,1.70
2019-04-20T04:49:26.691Z,1.70
2019-04-20T04:50:02.415Z,1.80
2019-04-20T04:50:31.477Z,1.80
2019-04-20T04:51:13.151Z,1.80
2019-04-20T04:51:49.195Z,1.80
2019-04-20T04:52:19.154Z,1.80
2019-04-20T04:52:58.797Z,1.90
2019-04-20T04:53:36.718Z,1.90
2019-04-20T04:54:10.197Z,1.90
2019-04-20T04:54:44.491Z,1.90
2019-04-20T04:55:22.175Z,2.00
2019-04-20T04:55:53.825Z,2.00
2019-04-20T04:56:23.141Z,2.00
2019-04-20T04:56:54.869Z,2.10
2019-04-20T04:57:28.564Z,2.10
2019-04-20T04:58:02.347Z,2.10
2019-04-20T04:58:36.286Z,2.20
2019-04-20T04:59:10.689Z,2.10
2019-04-20T04:59:44.583Z,2.20
2019-04-20T05:00:25.519Z,2.20
2019-04-20T05:01:01.341Z,2.20
2019-04-20T05:01:30.933Z,2.30
2019-04-20T05:02:03.538Z,2.30
2019-04-20T05:02:43.287Z,2.30
2019-04-20T05:03:26.712Z,2.30
2019-04-20T05:04:14.760Z,2.40
2019-04-20T05:04:49.848Z,2.40
2019-04-20T05:05:35.810Z,2.40
2019-04-20T05:06:20.890Z,2.50
2019-04-20T05:06:56.947Z,2.50
2019-04-20T05:07:26.700Z,2.60
2019-04-20T05:07:59.462Z,2.60
2019-04-20T05:08:33.819Z,2.60
2019-04-20T05:09:02.343Z,2.70
2019-04-20T05:09:34.241Z,2.70
2019-04-20T05:10:07.903Z,2.70
2019-04-20T05:10:41.640Z,2.80
2019-04-20T05:11:15.321Z,2.80
2019-04-20T05:11:56.101Z,2.90
2019-04-20T05:12:28.857Z,2.90
2019-04-20T05:13:01.145Z,2.90
2019-04-20T05:13:43.922Z,3.00
2019-04-20T05:14:17.016Z,3.00
2019-04-20T05:17:45.238Z,3.20
2019-04-20T05:18:20.550Z,3.30
2019-04-20T05:18:59.180Z,3.40
2019-04-20T05:19:29.847Z,3.40
2019-04-20T05:20:07.784Z,3.40
2019-04-20T05:20:41.720Z,3.50
2019-04-20T05:21:17.625Z,3.60
2019-04-20T05:22:01.164Z,3.70
2019-04-20T05:22:32.109Z,3.80
2019-04-20T05:23:21.097Z,3.80
2019-04-20T05:24:00.652Z,3.90
2019-04-20T05:24:33.817Z,4.00
2019-04-20T05:25:22.595Z,4.10
2019-04-20T05:26:01.886Z,4.10
2019-04-20T05:26:46.715Z,4.20
2019-04-20T05:27:56.349Z,4.30
2019-04-20T05:28:27.889Z,4.40
2019-04-20T05:29:02.535Z,4.50
2019-04-20T05:29:31.918Z,4.60
2019-04-20T05:30:03.633Z,4.60
2019-04-20T05:30:42.895Z,4.70
2019-04-20T05:31:15.004Z,4.80
2019-04-20T05:31:57.169Z,4.80
2019-04-20T05:32:35.831Z,4.90
2019-04-20T05:33:06.056Z,5.00
2019-04-20T05:34:03.639Z,5.10
2019-04-20T05:34:30.917Z,5.10
2019-04-20T05:35:10.930Z,5.20
2019-04-20T05:35:36.491Z,5.30
2019-04-20T05:36:13.878Z,5.30
2019-04-20T05:36:49.383Z,5.40
2019-04-20T05:37:33.268Z,5.40
2019-04-20T05:38:08.107Z,5.50
2019-04-20T05:38:43.198Z,5.60
2019-04-20T05:39:14.473Z,5.60
2019-04-20T05:39:44.459Z,5.70
2019-04-20T05:40:22.633Z,5.70
2019-04-20T05:40:59.947Z,5.80
2019-04-20T05:41:26.796Z,5.90
2019-04-20T05:42:03.387Z,5.90
2019-04-20T05:42:42.939Z,5.90
2019-04-20T05:43:33.118Z,6.00
2019-04-20T05:44:08.510Z,6.10
2019-04-20T05:44:49.922Z,6.10
2019-04-20T05:45:23.548Z,6.10
2019-04-20T05:45:51.592Z,6.20
2019-04-20T05:46:32.180Z,6.20
2019-04-20T05:47:15.834Z,6.30
2019-04-20T05:47:43.053Z,6.30
2019-04-20T05:48:16.473Z,6.40
2019-04-20T05:49:00.795Z,6.40
2019-04-20T05:49:31.738Z,6.50
2019-04-20T05:49:57.010Z,6.50
2019-04-20T05:50:36.486Z,6.50
2019-04-20T05:51:21.553Z,6.60
2019-04-20T05:51:47.628Z,6.60
2019-04-20T05:53:01.694Z,6.60
2019-04-20T05:53:38.466Z,6.70
2019-04-20T05:54:15.576Z,6.70
2019-04-20T05:54:44.674Z,6.80
2019-04-20T05:55:20.917Z,6.80
2019-04-20T05:55:55.458Z,6.80
2019-04-20T05:56:35.483Z,6.90
2019-04-20T05:57:15.592Z,6.90
2019-04-20T05:57:49.057Z,6.90
2019-04-20T05:58:16.463Z,7.00
2019-04-20T05:58:53.836Z,7.00
2019-04-20T05:59:19.173Z,7.00
2019-04-20T06:00:08.348Z,7.10
2019-04-20T06:00:40.606Z,7.10
2019-04-20T06:01:13.565Z,7.10
2019-04-20T06:01:53.291Z,7.10
2019-04-20T06:02:26.264Z,7.20
2019-04-20T06:02:53.958Z,7.20
2019-04-20T06:03:28.983Z,7.20
2019-04-20T06:04:03.001Z,7.30
2019-04-20T06:04:58.784Z,7.30
2019-04-20T06:05:16.010Z,7.30
2019-04-20T06:06:00.895Z,7.40
2019-04-20T06:06:27.619Z,7.40
2019-04-20T06:06:59.609Z,7.40
2019-04-20T06:07:35.968Z,7.40
2019-04-20T06:08:25.011Z,7.50
2019-04-20T06:08:56.641Z,7.50
2019-04-20T06:09:39.675Z,7.50
2019-04-20T06:10:00.247Z,7.60
2019-04-20T06:10:38.350Z,7.60
2019-04-20T06:11:07.971Z,7.60
2019-04-20T06:12:01.374Z,7.70
2019-04-20T06:12:19.957Z,7.70
2019-04-20T06:12:53.150Z,7.70
2019-04-20T06:13:22.910Z,7.70
2019-04-20T06:14:12.587Z,7.80
2019-04-20T06:15:00.163Z,7.80
2019-04-20T06:15:51.344Z,7.80
2019-04-20T06:16:33.535Z,7.90
2019-04-20T06:17:11.214Z,7.90
2019-04-20T06:18:03.891Z,7.90
2019-04-20T06:18:58.217Z,8.00
2019-04-20T06:19:36.959Z,8.00
2019-04-20T06:20:05.237Z,8.10
2019-04-20T06:20:41.255Z,8.10
2019-04-20T06:21:27.748Z,8.10
2019-04-20T06:21:57.705Z,8.10
2019-04-20T06:22:42.776Z,8.10
2019-04-20T06:23:42.297Z,8.20
2019-04-20T06:24:17.164Z,8.20
2019-04-20T06:25:14.517Z,8.30
2019-04-20T06:25:54.856Z,8.30
2019-04-20T06:26:59.488Z,8.40
2019-04-20T06:27:35.267Z,8.40
2019-04-20T06:28:06.575Z,8.50
2019-04-20T06:28:40.060Z,8.50
2019-04-20T06:29:16.981Z,8.50
2019-04-20T06:29:54.420Z,8.50
2019-04-20T06:30:25.233Z,8.50
2019-04-20T06:30:56.827Z,8.60
2019-04-20T06:31:37.033Z,8.60
2019-04-20T06:32:23.362Z,8.60
2019-04-20T06:34:27.983Z,8.70
2019-04-20T06:34:46.485Z,8.80
2019-04-20T06:35:44.601Z,8.80
2019-04-20T06:36:38.590Z,8.90
2019-04-20T06:37:02.860Z,8.90
2019-04-20T06:37:53.774Z,8.90
2019-04-20T06:38:46.848Z,8.90
2019-04-20T06:40:29.563Z,9.00
2019-04-20T06:40:55.237Z,9.10
2019-04-20T06:41:31.794Z,9.10
2019-04-20T06:42:23.455Z,9.10
2019-04-20T06:43:05.216Z,9.10
2019-04-20T06:43:48.853Z,9.20
2019-04-20T06:44:24.836Z,9.10
2019-04-20T06:44:48.388Z,9.20
2019-04-20T06:45:36.356Z,9.20
2019-04-20T06:46:09.813Z,9.20
2019-04-20T06:46:43.177Z,9.30
2019-04-20T06:47:15.479Z,9.30
2019-04-20T06:47:51.820Z,9.30
2019-04-20T06:48:29.390Z,9.30
2019-04-20T06:49:05.662Z,9.30
2019-04-20T06:49:35.540Z,9.40
2019-04-20T06:50:07.161Z,9.40
2019-04-20T06:50:44.257Z,9.40
2019-04-20T06:51:27.669Z,9.40
2019-04-20T06:52:10.116Z,9.50
2019-04-20T06:53:01.554Z,9.50
2019-04-20T06:53:43.627Z,9.50
2019-04-20T06:54:20.024Z,9.60
2019-04-20T06:55:07.065Z,9.60
2019-04-20T06:55:52.938Z,9.60
2019-04-20T06:56:27.600Z,9.60
2019-04-20T06:56:59.721Z,9.70
2019-04-20T06:57:49.902Z,9.70
2019-04-20T06:58:27.759Z,9.70
2019-04-20T06:58:53.764Z,9.80
2019-04-20T06:59:27.710Z,9.80
2019-04-20T07:00:01.016Z,9.80
2019-04-20T07:00:36.864Z,9.90
2019-04-20T07:01:09.318Z,9.90
2019-04-20T07:01:48.477Z,10.00
2019-04-20T07:02:28.388Z,10.00
2019-04-20T07:03:05.816Z,10.00
2019-04-20T07:03:42.276Z,10.10
2019-04-20T07:05:26.974Z,10.10
2019-04-20T07:06:01.911Z,10.20
2019-04-20T07:06:43.924Z,10.20
2019-04-20T07:07:02.382Z,10.30
2019-04-20T07:07:32.193Z,10.30
2019-04-20T07:08:28.864Z,10.30
2019-04-20T07:09:23.485Z,10.40
2019-04-20T07:10:08.815Z,10.40
2019-04-20T07:10:34.687Z,10.40
2019-04-20T07:11:11.186Z,10.50
2019-04-20T07:11:44.364Z,10.50
2019-04-20T07:12:13.111Z,10.50
2019-04-20T07:12:46.649Z,10.50
2019-04-20T07:13:19.310Z,10.60
2019-04-20T07:13:50.541Z,10.60
2019-04-20T07:14:31.890Z,10.60
2019-04-20T07:15:01.353Z,10.70
2019-04-20T07:15:47.450Z,10.70
2019-04-20T07:16:30.541Z,10.70
2019-04-20T07:17:10.851Z,10.80
2019-04-20T07:17:55.119Z,10.80
2019-04-20T07:18:31.382Z,10.80
2019-04-20T07:19:17.557Z,10.90
2019-04-20T07:19:44.437Z,10.90
2019-04-20T07:20:39.696Z,11.00
2019-04-20T07:21:12.645Z,11.00
2019-04-20T07:22:01.929Z,11.10
2019-04-20T07:22:33.681Z,11.10
2019-04-20T07:23:20.210Z,11.10
2019-04-20T07:23:43.703Z,11.20
2019-04-20T07:24:20.970Z,11.20
2019-04-20T07:25:32.069Z,11.20
2019-04-20T07:26:12.812Z,11.20
2019-04-20T07:26:41.666Z,11.20
2019-04-20T07:27:17.005Z,11.30
2019-04-20T07:27:48.995Z,11.30
2019-04-20T07:28:27.766Z,11.30
2019-04-20T07:28:59.005Z,11.40
2019-04-20T07:29:35.220Z,11.40
2019-04-20T07:30:10.715Z,11.40
2019-04-20T07:30:45.123Z,11.50
2019-04-20T07:31:19.069Z,11.50
2019-04-20T07:31:48.765Z,11.50
2019-04-20T07:32:26.009Z,11.50
2019-04-20T07:33:10.458Z,11.60
2019-04-20T07:33:39.406Z,11.60
2019-04-20T07:34:15.741Z,11.50
2019-04-20T07:34:51.281Z,11.60
2019-04-20T07:35:24.770Z,11.60
2019-04-20T07:35:56.248Z,11.60
2019-04-20T07:36:40.532Z,11.60
2019-04-20T07:37:45.075Z,11.70
2019-04-20T07:38:15.354Z,11.70
2019-04-20T07:38:44.646Z,11.70
2019-04-20T07:39:03.979Z,11.70
2019-04-20T07:39:33.166Z,11.80
2019-04-20T07:40:13.539Z,11.80
2019-04-20T07:40:42.859Z,11.80
2019-04-20T07:41:28.216Z,11.80
2019-04-20T07:42:00.649Z,11.90
2019-04-20T07:42:36.239Z,11.90
2019-04-20T07:43:04.705Z,11.90
2019-04-20T07:43:57.508Z,12.00
2019-04-20T07:44:20.017Z,12.00
2019-04-20T07:44:56.235Z,12.00
2019-04-20T07:46:04.319Z,12.10
2019-04-20T07:46:52.486Z,12.10
2019-04-20T07:47:13.723Z,12.10
2019-04-20T07:48:07.798Z,12.10
2019-04-20T07:48:21.002Z,12.20
2019-04-20T07:49:01.413Z,12.20
2019-04-20T07:49:29.258Z,12.20
2019-04-20T07:50:04.956Z,12.20
2019-04-20T07:50:37.578Z,12.30
2019-04-20T07:51:06.890Z,12.30
2019-04-20T07:51:37.518Z,12.30
2019-04-20T07:52:08.150Z,12.30
2019-04-20T07:52:51.454Z,12.40
2019-04-20T07:53:35.281Z,12.40
2019-04-20T07:54:23.311Z,12.40
2019-04-20T07:55:03.594Z,12.50
2019-04-20T07:55:44.277Z,12.50
2019-04-20T07:55:58.146Z,12.50
2019-04-20T07:56:37.540Z,12.60
2019-04-20T07:57:09.986Z,12.60
2019-04-20T07:57:39.206Z,12.60
2019-04-20T07:58:12.204Z,12.70
2019-04-20T07:58:44.228Z,12.70
2019-04-20T07:59:22.433Z,12.70
2019-04-20T08:00:08.119Z,12.70
2019-04-20T08:00:50.472Z,12.80
2019-04-20T08:01:31.685Z,12.80
2019-04-20T08:02:26.805Z,12.90
2019-04-20T08:03:18.546Z,12.90
2019-04-20T08:03:55.727Z,12.90
2019-04-20T08:04:33.500Z,13.00
2019-04-20T08:05:04.416Z,13.00
2019-04-20T08:05:40.642Z,13.00
2019-04-20T08:06:26.400Z,13.00
2019-04-20T08:07:01.702Z,13.10
2019-04-20T08:07:39.120Z,13.10
2019-04-20T08:08:23.912Z,13.10
2019-04-20T08:08:53.049Z,13.20
2019-04-20T08:09:25.963Z,13.20
2019-04-20T08:09:57.423Z,13.20
2019-04-20T08:10:45.226Z,13.20
2019-04-20T08:11:13.937Z,13.30
2019-04-20T08:12:02.426Z,13.30
2019-04-20T08:12:51.709Z,13.30
2019-04-20T08:13:30.485Z,13.30
2019-04-20T08:13:56.908Z,13.40
2019-04-20T08:14:31.624Z,13.40
2019-04-20T08:15:11.047Z,13.40
2019-04-20T08:15:58.377Z,13.40
2019-04-20T08:16:20.426Z,13.40
2019-04-20T08:17:34.250Z,13.50
2019-04-20T08:18:00.046Z,13.50
2019-04-20T08:18:41.591Z,13.50
2019-04-20T08:19:07.933Z,13.60
2019-04-20T08:19:48.474Z,13.60